Time;durP1;ratioP1;P1;durP2;ratioP2;P2;SDS_P1;SDS_P2;PMS_P1;PMS_P2;Temp;Humidity;BMP_temperature;BMP_pressure;BME280_temperature;BME280_humidity;BME280_pressure;Samples;Min_cycle;Max_cycle;Signal;HPM_P1;HPM_P2
2023/06/22 00:00:50;;;;;;;27.10;18.60;;;19.40;99.90;;;;;;5030574;28;20397;-73
2023/06/22 00:03:16;;;;;;;30.13;20.05;;;19.40;99.90;;;;;;5029279;28;20057;-73
2023/06/22 00:05:42;;;;;;;27.40;19.98;;;19.40;99.90;;;;;;5029082;28;20107;-73
2023/06/22 00:08:08;;;;;;;31.45;20.08;;;19.30;99.90;;;;;;5031976;28;20041;-74
2023/06/22 00:10:34;;;;;;;32.03;19.90;;;19.30;99.90;;;;;;5032991;28;20048;-73
2023/06/22 00:12:59;;;;;;;32.85;21.27;;;19.40;99.90;;;;;;5032606;28;20045;-74
2023/06/22 00:15:25;;;;;;;25.33;19.35;;;19.30;99.90;;;;;;5032769;28;20057;-73
2023/06/22 00:17:51;;;;;;;36.20;23.38;;;19.30;99.90;;;;;;5032772;28;20041;-73
2023/06/22 00:20:18;;;;;;;33.70;23.17;;;19.30;99.90;;;;;;5033017;28;20100;-73
2023/06/22 00:22:44;;;;;;;37.45;23.60;;;19.30;99.90;;;;;;5032828;28;20045;-73
2023/06/22 00:25:12;;;;;;;32.47;22.98;;;19.30;99.90;;;;;;5032959;28;20076;-73
2023/06/22 00:27:37;;;;;;;39.53;24.50;;;19.30;99.90;;;;;;5032625;28;20168;-73
2023/06/22 00:30:03;;;;;;;31.35;22.63;;;19.20;99.90;;;;;;5032492;28;20124;-74
2023/06/22 00:32:29;;;;;;;32.40;23.55;;;19.10;99.90;;;;;;5034088;28;20038;-73
2023/06/22 00:34:55;;;;;;;35.13;24.48;;;19.10;99.90;;;;;;5032500;28;20475;-74
2023/06/22 00:37:25;;;;;;;38.78;24.27;;;19.00;99.90;;;;;;5032553;28;20068;-73
2023/06/22 00:39:51;;;;;;;31.98;23.42;;;19.00;99.90;;;;;;5034596;28;20054;-74
2023/06/22 00:42:17;;;;;;;32.03;21.83;;;19.00;99.90;;;;;;5034192;28;20045;-74
2023/06/22 00:44:44;;;;;;;30.67;22.85;;;19.10;99.90;;;;;;5032210;28;20050;-73
2023/06/22 00:50:04;;;;;;;31.63;22.63;;;19.00;99.90;;;;;;5066678;22;20061;-77
2023/06/22 00:52:33;;;;;;;29.98;22.13;;;19.00;99.90;;;;;;5044176;22;20053;-80
2023/06/22 00:55:01;;;;;;;34.85;24.02;;;19.00;99.90;;;;;;5033498;28;20155;-79
2023/06/22 00:57:27;;;;;;;30.35;21.55;;;19.00;99.90;;;;;;5029802;28;20045;-79
2023/06/22 00:59:54;;;;;;;30.83;23.05;;;19.00;99.90;;;;;;5025934;28;20057;-79
2023/06/22 01:02:20;;;;;;;36.25;24.02;;;18.90;99.90;;;;;;5012478;28;20068;-79
2023/06/22 01:04:46;;;;;;;30.70;23.05;;;19.00;99.90;;;;;;5028902;28;20127;-79
2023/06/22 01:07:31;;;;;;;33.15;24.00;;;18.90;99.90;;;;;;5033158;28;20152;-80
2023/06/22 01:10:08;;;;;;;34.83;25.15;;;18.90;99.90;;;;;;5033624;28;20096;-79
2023/06/22 01:12:40;;;;;;;35.95;25.67;;;18.90;99.90;;;;;;5031782;28;20045;-79
2023/06/22 01:15:13;;;;;;;31.45;23.15;;;18.90;99.90;;;;;;5033074;28;20483;-80
2023/06/22 01:17:42;;;;;;;40.58;25.38;;;18.90;99.90;;;;;;5031488;28;20056;-79
2023/06/22 01:20:11;;;;;;;32.33;23.77;;;18.80;99.90;;;;;;5031999;28;20478;-78
2023/06/22 01:23:15;;;;;;;35.65;23.90;;;18.70;99.90;;;;;;5033168;28;20441;-80
2023/06/22 01:26:18;;;;;;;33.45;23.88;;;18.80;99.90;;;;;;5031395;28;20143;-79
2023/06/22 01:28:48;;;;;;;;;;;18.80;99.90;;;;;;5026592;28;20415;-79
2023/06/22 01:31:17;;;;;;;33.60;24.42;;;18.70;99.90;;;;;;5011854;28;19941;-79
2023/06/22 01:33:46;;;;;;;40.40;26.25;;;18.80;99.90;;;;;;5011418;28;20538;-80
2023/06/22 01:36:14;;;;;;;40.40;27.23;;;18.70;99.90;;;;;;5013153;28;20048;-79
2023/06/22 01:38:41;;;;;;;38.05;26.77;;;18.70;99.90;;;;;;5012835;28;20046;-80
2023/06/22 01:41:07;;;;;;;35.60;24.85;;;18.70;99.90;;;;;;5011475;28;20050;-79
2023/06/22 01:43:35;;;;;;;39.38;25.55;;;18.70;99.90;;;;;;5011437;28;20116;-79
2023/06/22 01:46:02;;;;;;;36.35;25.77;;;18.70;99.90;;;;;;5011673;28;20194;-79
2023/06/22 01:48:28;;;;;;;36.88;25.45;;;18.70;99.90;;;;;;5012840;28;20049;-80
2023/06/22 01:50:55;;;;;;;39.03;26.23;;;18.70;99.90;;;;;;5011749;28;20053;-79
2023/06/22 01:53:24;;;;;;;39.30;26.10;;;18.70;99.90;;;;;;5011619;28;20508;-80
2023/06/22 01:55:50;;;;;;;33.75;25.02;;;18.60;99.90;;;;;;5012773;28;20054;-80
2023/06/22 01:58:16;;;;;;;37.58;25.85;;;18.60;99.90;;;;;;5011197;28;20064;-80
2023/06/22 02:00:52;;;;;;;37.08;25.10;;;18.60;99.90;;;;;;5013108;28;20041;-80
2023/06/22 02:03:22;;;;;;;32.63;23.45;;;18.60;99.90;;;;;;5012997;28;20050;-80
2023/06/22 02:06:14;;;;;;;34.53;24.98;;;18.60;99.90;;;;;;5011507;28;20046;-80
2023/06/22 02:09:02;;;;;;;34.97;24.33;;;18.60;99.90;;;;;;5011090;28;20050;-80
2023/06/22 02:11:29;;;;;;;35.10;22.83;;;18.50;99.90;;;;;;5012577;28;20207;-79
2023/06/22 02:13:57;;;;;;;40.65;25.40;;;18.50;99.90;;;;;;5010935;28;20050;-79
2023/06/22 02:16:23;;;;;;;32.70;23.60;;;18.40;99.90;;;;;;5010506;28;20147;-79
2023/06/22 02:18:52;;;;;;;34.88;23.42;;;18.40;99.90;;;;;;5012223;28;20477;-80
2023/06/22 02:21:19;;;;;;;35.10;23.75;;;18.30;99.90;;;;;;5011110;28;20077;-79
2023/06/22 02:23:45;;;;;;;34.22;24.10;;;18.30;99.90;;;;;;5010652;28;20050;-80
2023/06/22 02:26:12;;;;;;;36.42;25.60;;;18.40;99.90;;;;;;5012377;28;20430;-79
2023/06/22 02:28:38;;;;;;;33.65;25.25;;;18.50;99.90;;;;;;5010648;28;20082;-80
2023/06/22 02:31:04;;;;;;;38.55;27.25;;;18.40;99.90;;;;;;5011771;28;20132;-80
2023/06/22 02:33:30;;;;;;;40.75;27.88;;;18.40;99.90;;;;;;5010776;28;20077;-80
2023/06/22 02:35:56;;;;;;;43.08;28.48;;;18.20;99.90;;;;;;5010839;28;20144;-80
2023/06/22 02:38:24;;;;;;;38.67;27.30;;;18.20;99.90;;;;;;5011853;28;20131;-81
2023/06/22 02:40:50;;;;;;;42.92;28.27;;;18.30;99.90;;;;;;5012022;28;20137;-80
2023/06/22 02:43:16;;;;;;;45.13;30.02;;;18.30;99.90;;;;;;5010660;28;20074;-81
2023/06/22 02:45:42;;;;;;;46.80;30.38;;;18.20;99.90;;;;;;5010608;28;20041;-80
2023/06/22 02:48:08;;;;;;;43.17;27.83;;;18.10;99.90;;;;;;5010518;28;20481;-80
2023/06/22 02:50:33;;;;;;;35.92;25.67;;;18.10;99.90;;;;;;5011687;28;20050;-80
2023/06/22 02:52:59;;;;;;;32.53;24.35;;;18.20;99.90;;;;;;5011439;28;20057;-81
2023/06/22 02:55:25;;;;;;;36.65;25.13;;;18.20;99.90;;;;;;5011786;28;20052;-80
2023/06/22 02:57:52;;;;;;;35.08;24.85;;;18.10;99.90;;;;;;5011511;28;20121;-80
2023/06/22 03:00:19;;;;;;;35.22;24.48;;;18.00;99.90;;;;;;5011613;28;20112;-80
2023/06/22 03:02:48;;;;;;;35.75;24.58;;;18.00;99.90;;;;;;5010285;28;20121;-80
2023/06/22 03:05:17;;;;;;;36.22;25.75;;;18.10;99.90;;;;;;5010155;28;20044;-81
2023/06/22 03:07:46;;;;;;;40.55;27.13;;;18.00;99.90;;;;;;5011609;28;20049;-81
2023/06/22 03:10:13;;;;;;;40.75;27.92;;;18.00;99.90;;;;;;5011742;28;20054;-80
2023/06/22 03:12:39;;;;;;;36.83;26.10;;;18.00;99.90;;;;;;5011718;28;20049;-81
2023/06/22 03:15:10;;;;;;;40.80;26.55;;;18.00;99.90;;;;;;5010859;28;20111;-81
2023/06/22 03:17:38;;;;;;;36.38;25.85;;;18.10;99.90;;;;;;5011977;28;20094;-81
2023/06/22 03:20:11;;;;;;;38.35;26.40;;;18.10;99.90;;;;;;5010348;28;20176;-80
2023/06/22 03:22:38;;;;;;;36.17;24.20;;;18.00;99.90;;;;;;5011307;28;20045;-81
2023/06/22 03:25:09;;;;;;;34.70;24.80;;;18.00;99.90;;;;;;5009809;28;20125;-81
2023/06/22 03:27:36;;;;;;;31.70;23.65;;;17.90;99.90;;;;;;5010981;28;20046;-81
2023/06/22 03:30:02;;;;;;;32.47;24.23;;;17.90;99.90;;;;;;5009663;28;20705;-81
2023/06/22 03:32:28;;;;;;;36.40;24.70;;;17.90;99.90;;;;;;5010012;28;20042;-82
2023/06/22 03:34:54;;;;;;;33.40;23.75;;;17.90;99.90;;;;;;5010085;28;20065;-81
2023/06/22 03:37:19;;;;;;;36.60;25.40;;;17.90;99.90;;;;;;5009773;28;20149;-81
2023/06/22 03:39:45;;;;;;;36.53;25.98;;;17.90;99.90;;;;;;5009887;28;20117;-81
2023/06/22 03:42:11;;;;;;;36.58;26.00;;;17.90;99.90;;;;;;5009840;28;20397;-81
2023/06/22 03:44:36;;;;;;;39.38;26.38;;;17.80;99.90;;;;;;5015084;28;20042;-82
2023/06/22 03:47:04;;;;;;;34.90;25.33;;;17.80;99.90;;;;;;5013926;28;20073;-82
2023/06/22 03:49:29;;;;;;;31.55;22.85;;;17.70;99.90;;;;;;5013864;28;20343;-82
2023/06/22 03:51:55;;;;;;;32.25;23.35;;;17.60;99.90;;;;;;5015261;28;20069;-81
2023/06/22 03:54:21;;;;;;;29.88;23.38;;;17.50;99.90;;;;;;5014110;28;20050;-82
2023/06/22 03:56:46;;;;;;;27.55;21.90;;;17.60;99.90;;;;;;5014061;28;20539;-82
2023/06/22 03:59:12;;;;;;;30.30;22.23;;;17.50;99.90;;;;;;5015413;28;20057;-81
2023/06/22 04:01:38;;;;;;;30.23;23.65;;;17.60;99.90;;;;;;5014284;28;20054;-81
2023/06/22 04:04:04;;;;;;;34.00;24.25;;;17.70;99.90;;;;;;5013899;28;20050;-82
2023/06/22 04:06:29;;;;;;;31.73;22.65;;;17.70;99.90;;;;;;5014923;28;20046;-82
2023/06/22 04:08:55;;;;;;;30.52;23.80;;;17.80;99.90;;;;;;5015242;28;20445;-81
2023/06/22 04:11:21;;;;;;;30.13;22.45;;;17.70;99.90;;;;;;5015145;28;20053;-82
2023/06/22 04:13:48;;;;;;;31.48;22.75;;;17.70;99.90;;;;;;5013753;28;20069;-82
2023/06/22 04:16:14;;;;;;;32.17;22.50;;;17.80;99.90;;;;;;5014906;28;20046;-82
2023/06/22 04:18:40;;;;;;;29.13;22.75;;;17.70;99.90;;;;;;4997235;28;20072;-82
2023/06/22 04:21:05;;;;;;;29.88;23.27;;;17.70;99.90;;;;;;5014890;28;20049;-82
2023/06/22 04:23:31;;;;;;;34.17;24.77;;;17.60;99.90;;;;;;5014593;28;20073;-81
2023/06/22 04:25:57;;;;;;;33.80;23.75;;;17.60;99.90;;;;;;5013280;28;20402;-81
2023/06/22 04:28:23;;;;;;;32.42;24.35;;;17.70;99.90;;;;;;5013617;28;20049;-82
2023/06/22 04:30:50;;;;;;;31.02;23.52;;;17.80;99.90;;;;;;5013653;28;20062;-82
2023/06/22 04:33:16;;;;;;;34.72;26.05;;;17.90;99.90;;;;;;5014935;28;20049;-83
2023/06/22 04:35:45;;;;;;;36.60;27.35;;;17.90;99.90;;;;;;5013207;28;20034;-82
2023/06/22 04:38:13;;;;;;;37.25;26.13;;;17.90;99.90;;;;;;5015159;28;20034;-82
2023/06/22 04:40:39;;;;;;;41.97;27.95;;;18.00;99.90;;;;;;5013187;28;20428;-83
2023/06/22 04:43:06;;;;;;;41.42;27.73;;;18.10;99.90;;;;;;5013313;28;20129;-84
2023/06/22 04:45:33;;;;;;;42.08;29.27;;;18.10;99.90;;;;;;5013447;28;20080;-84
2023/06/22 04:47:58;;;;;;;39.15;27.52;;;18.10;99.90;;;;;;5013471;28;20041;-84
2023/06/22 04:50:24;;;;;;;42.88;28.55;;;18.20;99.90;;;;;;5017320;28;20049;-84
2023/06/22 04:52:51;;;;;;;40.42;28.40;;;18.20;99.90;;;;;;5032791;28;20065;-84
2023/06/22 04:55:18;;;;;;;41.47;29.08;;;18.30;99.90;;;;;;5026626;28;20050;-84
2023/06/22 04:57:48;;;;;;;42.90;30.33;;;18.40;99.90;;;;;;5013359;28;20099;-85
2023/06/22 05:00:19;;;;;;;43.25;30.50;;;18.50;99.90;;;;;;5014617;28;20053;-84
2023/06/22 05:02:46;;;;;;;45.75;30.35;;;18.40;99.90;;;;;;5014689;28;20042;-85
2023/06/22 05:05:15;;;;;;;44.50;31.63;;;18.50;99.90;;;;;;5014544;28;20065;-84
2023/06/22 05:07:47;;;;;;;44.85;31.30;;;18.60;99.90;;;;;;5013182;28;20068;-84
2023/06/22 05:10:13;;;;;;;49.83;34.08;;;18.70;99.90;;;;;;5014618;28;20046;-85
2023/06/22 05:12:40;;;;;;;51.78;33.60;;;18.80;99.90;;;;;;5012754;28;20066;-84
2023/06/22 05:15:07;;;;;;;48.35;33.45;;;18.80;99.90;;;;;;4996582;28;20060;-84
2023/06/22 05:17:33;;;;;;;49.40;32.85;;;19.00;99.90;;;;;;5012887;28;20049;-84
2023/06/22 05:19:59;;;;;;;49.65;34.03;;;19.00;99.90;;;;;;5014211;28;20038;-84
2023/06/22 05:22:24;;;;;;;47.13;33.65;;;19.10;99.90;;;;;;5028409;28;20064;-84
2023/06/22 05:24:50;;;;;;;52.80;35.15;;;19.20;99.90;;;;;;5032860;28;20514;-84
2023/06/22 05:27:16;;;;;;;49.42;34.05;;;19.30;99.90;;;;;;5032845;28;20117;-83
2023/06/22 05:29:44;;;;;;;52.40;34.92;;;19.30;99.90;;;;;;5034931;28;20069;-82
2023/06/22 05:32:10;;;;;;;50.50;34.83;;;19.50;99.90;;;;;;5035564;28;20033;-82
2023/06/22 05:34:36;;;;;;;47.85;33.55;;;19.60;99.90;;;;;;5034907;28;20119;-82
2023/06/22 05:37:02;;;;;;;48.90;35.53;;;19.60;99.90;;;;;;5037320;28;20443;-82
2023/06/22 05:39:28;;;;;;;49.90;34.08;;;19.60;99.90;;;;;;5035379;28;20048;-82
2023/06/22 05:41:54;;;;;;;51.17;34.47;;;19.70;99.90;;;;;;5036693;28;20369;-82
2023/06/22 05:44:19;;;;;;;53.08;35.47;;;19.80;99.90;;;;;;5036421;28;20045;-82
2023/06/22 05:46:46;;;;;;;48.33;34.63;;;19.90;99.90;;;;;;5034449;28;20045;-83
2023/06/22 05:49:15;;;;;;;48.88;33.08;;;19.90;99.90;;;;;;5032535;28;20057;-83
2023/06/22 05:51:41;;;;;;;45.60;32.13;;;19.90;99.90;;;;;;5034992;28;20056;-83
2023/06/22 05:54:10;;;;;;;44.10;32.90;;;19.90;99.90;;;;;;5034072;28;20054;-82
2023/06/22 05:56:36;;;;;;;44.08;31.40;;;19.90;99.90;;;;;;5032292;28;20049;-81
2023/06/22 05:59:01;;;;;;;45.55;32.75;;;20.00;99.90;;;;;;5032547;28;20041;-81
2023/06/22 06:01:27;;;;;;;44.35;32.28;;;20.00;99.90;;;;;;5015990;28;20041;-81
2023/06/22 06:03:53;;;;;;;46.65;30.67;;;20.00;99.90;;;;;;5034199;28;20094;-81
2023/06/22 06:06:28;;;;;;;40.70;29.80;;;20.10;99.90;;;;;;5033007;28;20138;-81
2023/06/22 06:08:54;;;;;;;41.90;29.02;;;20.20;99.90;;;;;;5031930;28;20041;-78
2023/06/22 06:11:21;;;;;;;44.50;30.50;;;20.20;99.90;;;;;;5029547;28;20045;-76
2023/06/22 06:13:46;;;;;;;48.80;31.48;;;19.90;99.90;;;;;;5030765;28;20128;-82
2023/06/22 06:16:12;;;;;;;41.85;30.25;;;19.80;99.90;;;;;;5030960;28;20120;-75
2023/06/22 06:18:38;;;;;;;39.10;28.92;;;19.90;99.90;;;;;;5033216;28;20407;-75
2023/06/22 06:21:04;;;;;;;37.67;26.92;;;20.10;99.90;;;;;;5035804;28;20126;-75
2023/06/22 06:23:29;;;;;;;39.65;26.67;;;20.10;99.90;;;;;;5035523;28;20046;-75
2023/06/22 06:25:55;;;;;;;36.50;26.10;;;20.20;99.90;;;;;;5035787;28;20045;-76
2023/06/22 06:28:22;;;;;;;38.88;26.05;;;20.20;99.90;;;;;;5033351;28;20570;-75
2023/06/22 06:30:47;;;;;;;34.05;24.60;;;20.30;99.90;;;;;;5030429;28;20411;-75
2023/06/22 06:33:13;;;;;;;33.85;23.17;;;20.20;99.90;;;;;;5030554;28;20041;-75
2023/06/22 06:35:39;;;;;;;33.92;22.83;;;20.30;99.90;;;;;;5030276;28;20500;-76
2023/06/22 06:38:05;;;;;;;30.52;21.75;;;20.40;99.90;;;;;;5028575;28;20048;-76
2023/06/22 06:40:31;;;;;;;29.48;20.23;;;20.30;99.90;;;;;;5030346;28;20152;-76
2023/06/22 06:42:56;;;;;;;31.08;21.42;;;20.40;99.90;;;;;;5028976;28;20047;-77
2023/06/22 06:45:23;;;;;;;26.40;19.15;;;20.40;99.90;;;;;;5030610;28;20103;-77
2023/06/22 06:47:50;;;;;;;29.10;20.27;;;20.40;99.90;;;;;;5029009;28;20041;-75
2023/06/22 06:50:16;;;;;;;34.97;21.95;;;20.40;99.90;;;;;;5030103;28;20067;-76
2023/06/22 06:52:42;;;;;;;27.85;21.10;;;20.50;99.90;;;;;;5028334;28;20159;-77
2023/06/22 06:55:12;;;;;;;32.92;20.98;;;20.50;99.90;;;;;;5028548;28;20054;-76
2023/06/22 06:57:39;;;;;;;30.10;21.05;;;20.60;99.90;;;;;;5029902;28;20095;-76
2023/06/22 07:00:09;;;;;;;28.15;19.38;;;20.60;99.90;;;;;;5011921;28;20088;-76
2023/06/22 07:02:35;;;;;;;29.55;20.30;;;20.70;99.90;;;;;;5030248;28;20087;-76
2023/06/22 07:05:04;;;;;;;26.15;18.33;;;20.80;99.90;;;;;;5027131;28;20425;-76
2023/06/22 07:07:30;;;;;;;25.17;18.30;;;20.90;99.90;;;;;;5027977;28;20121;-76
2023/06/22 07:09:55;;;;;;;21.90;16.80;;;21.00;99.90;;;;;;5028301;28;20495;-76
2023/06/22 07:12:21;;;;;;;21.20;16.35;;;21.00;99.90;;;;;;5028075;28;20037;-76
2023/06/22 07:14:47;;;;;;;24.70;16.13;;;21.00;99.90;;;;;;5029878;28;20407;-75
2023/06/22 07:17:12;;;;;;;23.23;16.42;;;21.00;99.90;;;;;;5029438;28;20049;-76
2023/06/22 07:19:38;;;;;;;19.63;15.00;;;21.10;99.90;;;;;;5028692;28;20385;-76
2023/06/22 07:22:04;;;;;;;21.35;15.40;;;21.10;99.90;;;;;;5012753;28;20045;-77
2023/06/22 07:24:32;;;;;;;21.60;14.48;;;21.20;99.90;;;;;;5028695;28;20050;-76
2023/06/22 07:26:58;;;;;;;17.60;13.00;;;21.30;99.90;;;;;;5029695;28;20135;-76
2023/06/22 07:29:24;;;;;;;19.95;14.13;;;21.10;99.90;;;;;;5030271;28;20052;-77
2023/06/22 07:31:56;;;;;;;17.83;12.77;;;21.20;99.90;;;;;;5030194;28;20484;-76
2023/06/22 07:34:22;;;;;;;19.45;12.70;;;21.20;99.90;;;;;;5029536;28;20146;-78
2023/06/22 07:36:47;;;;;;;13.93;11.23;;;21.30;99.90;;;;;;5030489;28;20492;-72
2023/06/22 07:39:14;;;;;;;20.70;11.82;;;21.50;99.90;;;;;;5030604;28;20057;-74
2023/06/22 07:41:43;;;;;;;18.27;10.32;;;21.60;99.90;;;;;;5028783;28;20131;-76
2023/06/22 07:44:09;;;;;;;14.52;10.52;;;21.60;99.90;;;;;;5028582;28;20050;-75
2023/06/22 07:46:35;;;;;;;14.77;10.25;;;21.60;99.90;;;;;;5030126;28;20041;-76
2023/06/22 07:49:01;;;;;;;15.52;9.95;;;21.70;99.90;;;;;;5031112;28;20042;-81
2023/06/22 07:51:27;;;;;;;12.32;9.23;;;21.70;99.90;;;;;;5030006;28;20404;-80
2023/06/22 07:53:53;;;;;;;14.85;10.77;;;21.80;99.90;;;;;;5029977;28;20057;-81
2023/06/22 07:56:20;;;;;;;13.25;9.95;;;21.80;99.90;;;;;;5029860;28;20143;-80
2023/06/22 07:58:46;;;;;;;15.75;10.55;;;21.80;99.90;;;;;;5030330;28;20057;-81
2023/06/22 08:01:13;;;;;;;14.90;9.85;;;21.90;99.90;;;;;;5031503;28;20037;-81
2023/06/22 08:03:39;;;;;;;16.05;10.52;;;22.00;99.90;;;;;;5029487;28;20052;-81
2023/06/22 08:06:08;;;;;;;17.00;10.48;;;21.90;99.90;;;;;;5030154;28;20044;-81
2023/06/22 08:08:34;;;;;;;15.23;9.82;;;22.00;99.90;;;;;;5028822;28;20550;-79
2023/06/22 08:10:59;;;;;;;19.67;10.60;;;22.10;99.90;;;;;;5028888;28;20129;-78
2023/06/22 08:13:25;;;;;;;19.85;10.35;;;22.00;99.90;;;;;;5010422;28;20049;-76
2023/06/22 08:15:51;;;;;;;12.70;9.15;;;22.10;99.90;;;;;;5029185;28;20045;-79
2023/06/22 08:18:16;;;;;;;16.13;9.13;;;22.20;99.90;;;;;;5029133;28;20052;-80
2023/06/22 08:20:42;;;;;;;14.43;8.80;;;22.30;99.90;;;;;;5027875;28;20080;-79
2023/06/22 08:23:08;;;;;;;13.95;8.85;;;22.30;99.90;;;;;;5023927;28;20460;-79
2023/06/22 08:25:34;;;;;;;13.35;9.00;;;22.40;99.90;;;;;;5010725;28;20050;-78
2023/06/22 08:28:01;;;;;;;14.55;9.23;;;22.40;99.90;;;;;;5018483;28;20116;-79
2023/06/22 08:30:27;;;;;;;14.80;9.93;;;22.50;99.90;;;;;;5022482;28;20046;-78
2023/06/22 08:32:54;;;;;;;15.07;8.50;;;22.50;99.90;;;;;;5032116;28;20048;-79
2023/06/22 08:35:20;;;;;;;15.45;9.85;;;22.60;99.90;;;;;;5033485;28;20095;-79
2023/06/22 08:37:50;;;;;;;15.27;9.48;;;22.60;99.90;;;;;;5033822;28;20029;-79
2023/06/22 08:40:16;;;;;;;11.20;8.65;;;22.70;99.90;;;;;;5032262;28;20056;-79
2023/06/22 08:42:41;;;;;;;14.80;8.95;;;22.70;99.90;;;;;;5015601;28;20049;-79
2023/06/22 08:45:08;;;;;;;13.20;8.75;;;22.60;99.90;;;;;;5033432;28;20049;-79
2023/06/22 08:47:34;;;;;;;13.77;10.07;;;22.80;99.90;;;;;;5031878;28;20046;-79
2023/06/22 08:50:01;;;;;;;10.93;8.38;;;22.90;99.90;;;;;;5033531;28;20039;-79
2023/06/22 08:52:27;;;;;;;16.40;10.25;;;22.90;99.90;;;;;;5031615;28;20061;-79
2023/06/22 08:54:53;;;;;;;14.00;9.65;;;23.00;99.90;;;;;;5032586;28;20128;-79
2023/06/22 08:57:18;;;;;;;17.75;9.90;;;23.10;99.90;;;;;;5032256;28;20408;-79
2023/06/22 08:59:44;;;;;;;15.30;9.65;;;23.10;99.90;;;;;;5032327;28;20033;-79
2023/06/22 09:02:10;;;;;;;19.30;10.15;;;23.20;99.90;;;;;;5033445;28;20116;-79
2023/06/22 09:04:36;;;;;;;15.57;9.70;;;23.30;99.90;;;;;;5031968;28;20131;-80
2023/06/22 09:07:02;;;;;;;14.45;9.98;;;23.40;99.90;;;;;;5032088;28;20120;-80
2023/06/22 09:09:27;;;;;;;14.80;11.82;;;23.50;99.90;;;;;;5032373;28;20053;-72
2023/06/22 09:11:53;;;;;;;12.75;10.05;;;23.40;99.90;;;;;;5032896;28;20042;-72
2023/06/22 09:14:19;;;;;;;15.98;11.15;;;23.40;99.90;;;;;;5031289;28;20484;-72
2023/06/22 09:16:44;;;;;;;13.95;10.18;;;23.50;99.90;;;;;;5022775;28;20041;-72
2023/06/22 09:19:10;;;;;;;13.40;10.20;;;23.60;99.90;;;;;;5021324;28;20046;-72
2023/06/22 09:21:36;;;;;;;15.30;9.90;;;23.70;99.90;;;;;;5029244;28;20053;-72
2023/06/22 09:24:02;;;;;;;9.75;7.93;;;23.80;99.90;;;;;;5012885;28;20612;-72
2023/06/22 09:26:28;;;;;;;13.07;9.23;;;23.90;99.90;;;;;;5012864;28;20112;-71
2023/06/22 09:28:54;;;;;;;13.75;9.20;;;23.90;99.90;;;;;;5020678;28;20490;-72
2023/06/22 09:31:25;;;;;;;11.73;9.07;;;24.10;99.90;;;;;;5032124;28;20128;-71
2023/06/22 09:33:54;;;;;;;15.15;10.23;;;24.10;99.90;;;;;;5032388;28;20045;-71
2023/06/22 09:36:21;;;;;;;13.18;9.00;;;24.10;99.90;;;;;;5032197;28;20519;-71
2023/06/22 09:38:47;;;;;;;11.98;8.23;;;24.10;99.90;;;;;;5032505;28;20075;-72
2023/06/22 09:41:13;;;;;;;13.30;9.25;;;24.10;99.90;;;;;;5031230;28;20045;-71
2023/06/22 09:43:39;;;;;;;14.63;8.38;;;24.10;99.90;;;;;;5032322;28;20044;-72
2023/06/22 09:46:06;;;;;;;12.93;8.40;;;24.30;99.90;;;;;;5032044;28;20732;-72
2023/06/22 09:48:32;;;;;;;12.50;8.02;;;24.20;99.90;;;;;;5031771;28;20045;-72
2023/06/22 09:50:58;;;;;;;10.77;8.10;;;24.10;99.90;;;;;;5028070;28;20041;-71
2023/06/22 09:53:24;;;;;;;12.57;8.00;;;24.10;99.90;;;;;;5011842;28;20140;-72
2023/06/22 09:55:49;;;;;;;10.57;7.65;;;24.00;99.90;;;;;;5012314;28;20133;-71
2023/06/22 09:58:15;;;;;;;12.60;9.15;;;24.00;99.90;;;;;;5012252;28;20102;-72
2023/06/22 10:00:44;;;;;;;14.00;9.20;;;24.00;99.90;;;;;;5011896;28;20477;-71
2023/06/22 10:03:09;;;;;;;14.98;7.60;;;24.00;99.90;;;;;;5012009;28;20121;-72
2023/06/22 10:05:35;;;;;;;11.32;8.52;;;24.00;99.90;;;;;;5012412;28;20601;-69
2023/06/22 10:08:01;;;;;;;12.65;7.35;;;24.00;99.90;;;;;;5012040;28;20049;-70
2023/06/22 10:10:26;;;;;;;10.15;7.10;;;24.20;99.90;;;;;;5011904;28;20038;-70
2023/06/22 10:12:57;;;;;;;12.55;8.20;;;24.20;99.90;;;;;;5011744;28;20117;-72
2023/06/22 10:15:23;;;;;;;12.00;7.43;;;24.40;99.90;;;;;;5011838;28;20052;-72
2023/06/22 10:17:49;;;;;;;11.15;7.50;;;24.40;99.90;;;;;;5011658;28;20037;-72
2023/06/22 10:20:17;;;;;;;12.15;6.97;;;24.50;99.90;;;;;;5011631;28;20797;-73
2023/06/22 10:22:44;;;;;;;11.90;7.65;;;24.60;99.90;;;;;;5011647;28;20042;-72
2023/06/22 10:25:11;;;;;;;12.38;7.15;;;24.60;99.90;;;;;;5011597;28;20046;-72
2023/06/22 10:27:39;;;;;;;13.25;8.60;;;24.70;99.90;;;;;;5010203;28;20124;-72
2023/06/22 10:30:09;;;;;;;8.80;6.72;;;24.60;99.90;;;;;;5011291;28;20081;-70
2023/06/22 10:32:36;;;;;;;13.70;8.07;;;24.70;99.90;;;;;;5011600;28;20034;-72
2023/06/22 10:35:02;;;;;;;12.27;7.65;;;24.80;99.90;;;;;;5011207;28;20034;-73
2023/06/22 10:37:28;;;;;;;9.77;6.53;;;24.70;99.90;;;;;;5011285;28;20056;-73
2023/06/22 10:39:53;;;;;;;13.85;8.48;;;24.70;99.90;;;;;;5010100;28;20038;-73
2023/06/22 10:42:19;;;;;;;11.80;7.55;;;24.80;99.90;;;;;;5011460;28;20042;-71
2023/06/22 10:44:45;;;;;;;9.70;7.07;;;24.90;99.90;;;;;;5011023;28;20038;-72
2023/06/22 10:47:11;;;;;;;9.90;5.60;;;24.80;99.90;;;;;;5011157;28;20061;-72
2023/06/22 10:49:41;;;;;;;17.33;7.70;;;24.90;99.90;;;;;;5009813;28;20053;-73
2023/06/22 10:52:08;;;;;;;8.60;6.60;;;24.90;99.90;;;;;;5010920;28;20054;-73
2023/06/22 10:54:34;;;;;;;13.32;7.13;;;25.00;99.90;;;;;;5011006;28;20094;-72
2023/06/22 10:57:01;;;;;;;8.68;5.65;;;25.00;99.90;;;;;;5011251;28;20053;-73
2023/06/22 10:59:28;;;;;;;10.30;6.78;;;25.10;99.90;;;;;;5022008;28;20076;-72
2023/06/22 11:01:55;;;;;;;7.90;5.18;;;25.10;99.90;;;;;;5028331;28;20045;-72
2023/06/22 11:04:21;;;;;;;12.38;7.68;;;25.10;99.90;;;;;;5030067;28;20044;-72
2023/06/22 11:06:48;;;;;;;10.23;6.32;;;25.10;99.90;;;;;;5028893;28;20038;-72
2023/06/22 11:09:18;;;;;;;11.32;6.53;;;25.20;99.90;;;;;;5030379;28;20060;-70
2023/06/22 11:11:45;;;;;;;9.75;6.55;;;25.20;99.90;;;;;;5030259;28;20045;-70
2023/06/22 11:14:10;;;;;;;14.30;6.95;;;25.20;99.90;;;;;;5029667;28;20033;-70
2023/06/22 11:16:36;;;;;;;8.70;6.25;;;25.20;99.90;;;;;;5030766;28;20040;-70
2023/06/22 11:19:04;;;;;;;12.68;6.57;;;25.20;99.90;;;;;;5030783;28;20041;-70
2023/06/22 11:21:31;;;;;;;9.35;6.55;;;25.10;99.90;;;;;;5030665;28;20717;-70
2023/06/22 11:23:57;;;;;;;10.50;7.07;;;25.20;99.90;;;;;;5030823;28;20384;-70
2023/06/22 11:26:23;;;;;;;12.32;6.78;;;25.20;99.90;;;;;;5030313;28;20033;-69
2023/06/22 11:28:48;;;;;;;10.32;7.05;;;25.20;99.90;;;;;;5028934;28;20088;-70
2023/06/22 11:31:14;;;;;;;9.35;6.10;;;25.20;99.90;;;;;;5030480;28;20131;-70
2023/06/22 11:33:40;;;;;;;10.57;6.32;;;25.20;99.90;;;;;;5030590;28;20613;-71
2023/06/22 11:36:06;;;;;;;11.40;6.75;;;25.30;99.90;;;;;;5030694;28;20475;-70
2023/06/22 11:38:32;;;;;;;6.95;4.93;;;25.30;99.90;;;;;;5029876;28;20038;-70
2023/06/22 11:40:58;;;;;;;10.52;6.60;;;25.30;99.90;;;;;;5029651;28;20065;-69
2023/06/22 11:43:25;;;;;;;8.57;6.00;;;25.30;99.90;;;;;;5024699;28;20048;-70
2023/06/22 11:45:50;;;;;;;8.75;5.90;;;25.30;99.90;;;;;;5007400;28;20044;-70
2023/06/22 11:48:16;;;;;;;9.00;6.65;;;25.30;99.90;;;;;;5010442;28;20481;-70
2023/06/22 11:50:42;;;;;;;8.88;5.80;;;25.20;99.90;;;;;;5028181;28;20041;-70
2023/06/22 11:53:07;;;;;;;11.23;7.20;;;25.20;99.90;;;;;;5028762;28;20057;-70
2023/06/22 11:55:33;;;;;;;9.75;6.90;;;25.20;99.90;;;;;;5029656;28;20056;-69
2023/06/22 11:58:02;;;;;;;11.40;7.10;;;25.20;99.90;;;;;;5030354;28;20049;-70
2023/06/22 12:00:28;;;;;;;8.73;6.88;;;25.20;99.90;;;;;;5030537;28;20447;-70
2023/06/22 12:02:53;;;;;;;10.95;7.63;;;25.20;99.90;;;;;;5030369;28;20045;-70
2023/06/22 12:05:20;;;;;;;10.18;6.00;;;25.20;99.90;;;;;;5033627;28;20418;-70
2023/06/22 12:07:46;;;;;;;10.38;6.25;;;25.30;99.90;;;;;;5034032;28;20041;-70
2023/06/22 12:10:12;;;;;;;10.13;6.60;;;25.30;99.90;;;;;;5033608;28;20506;-71
2023/06/22 12:12:38;;;;;;;10.95;6.68;;;25.40;99.90;;;;;;5033986;28;20041;-69
2023/06/22 12:15:04;;;;;;;9.82;6.60;;;25.40;99.90;;;;;;5033947;28;20117;-70
2023/06/22 12:17:30;;;;;;;10.82;6.80;;;25.50;99.90;;;;;;5033992;28;20042;-70
2023/06/22 12:19:56;;;;;;;8.82;7.22;;;25.40;99.90;;;;;;5034041;28;20057;-70
2023/06/22 12:22:21;;;;;;;10.70;6.45;;;25.40;99.90;;;;;;5034102;28;20049;-71
2023/06/22 12:24:47;;;;;;;9.77;6.65;;;25.40;99.90;;;;;;5033637;28;20041;-71
2023/06/22 12:27:16;;;;;;;12.57;7.05;;;25.30;99.90;;;;;;5033865;28;20096;-70
2023/06/22 12:29:42;;;;;;;12.40;6.43;;;25.40;99.90;;;;;;5034006;28;20122;-70
2023/06/22 12:32:07;;;;;;;14.07;6.53;;;25.40;99.90;;;;;;5034203;28;20539;-70